Eldorado, Illinois
Current Conditions -  °F | °C
As of 1:15 PM on Thursday 27 Nov 2014 (Local Time) from KHSB Reporting Station
Overcast Overcast  
Wind Chill: 23°   Ceiling: 2600
Heat Index: 32°   Visibility: 7mi
Dew Point: 27°   Wind: 12mph
Humidity: 82%   Direction: 290°WNW
Pressure: 30.47"   Gusts: NA
Location:  37.81°N, 88.44°W
Report Text: KHSB 271915Z AUTO 29010KT 7SM SCT019 OVC026 00/M03 A3047 RMK AO2 T10021030
Loading
Personal Weather Stations






























Interactive Weather Map New forecast layout! Learn more

10-Day Weather Forecast

Advertisements
Track Severe Weather on mobile